Terminal Aerodrome Forecast
Issued by NWS Wilmington, OH

Current Version | Previous Version | Graphics & Text | Print | Product List | Glossary On
Versions: 1 2 3 4 5 6 7 8 9 10 11 12 13 14 15 16 17 18 19 20 21 22 23 24 25 26 27 28 29
000
FTUS41 KILN 142100 AAA
TAFCVG
TAF AMD
KCVG 142102Z 1421/1524 VRB03KT P6SM SKC
     FM150800 10003KT P6SM BKN250
     FM151400 17006KT P6SM BKN150
     FM151700 22006KT P6SM BKN150
     FM152200 25006KT P6SM SCT040 BKN080=

USA.gov is the U.S. government's official web portal to all federal, state and local government web resources and services.